createdAt,value
2022-10-06T00:00:51.620Z,98.8
2022-10-06T00:01:54.587Z,98.8
2022-10-06T00:02:56.644Z,98.8
2022-10-06T00:03:58.586Z,98.8
2022-10-06T00:05:01.466Z,98.8
2022-10-06T00:06:02.589Z,98.8
2022-10-06T00:07:04.623Z,98.8
2022-10-06T00:08:09.997Z,98.8
2022-10-06T00:09:08.595Z,98.8
2022-10-06T00:10:10.578Z,98.8
2022-10-06T00:11:12.589Z,98.8
2022-10-06T00:12:14.610Z,98.8
2022-10-06T00:13:16.588Z,98.8
2022-10-06T00:14:18.620Z,98.8
2022-10-06T00:15:20.597Z,98.8
2022-10-06T00:16:22.716Z,98.8
2022-10-06T00:17:24.629Z,98.8
2022-10-06T00:18:27.130Z,98.8
2022-10-06T00:19:28.597Z,98.8
2022-10-06T00:20:30.600Z,98.8
2022-10-06T00:21:32.596Z,98.8
2022-10-06T00:22:34.618Z,98.8
2022-10-06T00:23:36.621Z,98.8
2022-10-06T00:24:38.605Z,98.8
2022-10-06T00:25:40.595Z,98.8
2022-10-06T00:26:42.636Z,98.8
2022-10-06T00:27:44.603Z,98.8
2022-10-06T00:28:46.720Z,98.8
2022-10-06T00:29:48.607Z,98.8
2022-10-06T00:30:51.690Z,98.8
2022-10-06T00:31:54.610Z,98.8
2022-10-06T00:32:56.623Z,98.8
2022-10-06T00:33:58.607Z,98.8
2022-10-06T00:35:01.151Z,98.8
2022-10-06T00:36:02.640Z,98.8
2022-10-06T00:37:04.626Z,98.8
2022-10-06T00:38:06.615Z,98.8
2022-10-06T00:39:08.612Z,98.8
2022-10-06T00:40:10.791Z,98.8
2022-10-06T00:41:12.812Z,98.8
2022-10-06T00:42:14.617Z,98.8
2022-10-06T00:43:16.620Z,98.8
2022-10-06T00:44:18.611Z,98.8
2022-10-06T00:45:20.617Z,98.8
2022-10-06T00:46:22.678Z,98.8
2022-10-06T00:47:24.643Z,98.8
2022-10-06T00:48:26.961Z,98.8
2022-10-06T00:49:28.612Z,98.8
2022-10-06T00:50:30.622Z,98.8
2022-10-06T00:51:32.616Z,98.8
2022-10-06T00:52:34.667Z,98.8
2022-10-06T00:53:36.625Z,98.8
2022-10-06T00:54:38.625Z,98.8
2022-10-06T00:55:40.649Z,98.8
2022-10-06T00:56:42.637Z,98.8
2022-10-06T00:57:44.629Z,98.8
2022-10-06T00:58:46.639Z,98.8
2022-10-06T00:59:48.662Z,98.8
2022-10-06T01:00:51.651Z,98.8
2022-10-06T01:01:54.664Z,98.8
2022-10-06T01:02:56.793Z,98.8
2022-10-06T01:03:58.636Z,98.8
2022-10-06T01:05:01.182Z,98.8
2022-10-06T01:06:02.625Z,98.8
2022-10-06T01:07:04.630Z,98.8
2022-10-06T01:08:06.667Z,98.8
2022-10-06T01:09:08.639Z,98.8
2022-10-06T01:10:10.627Z,98.8
2022-10-06T01:11:12.633Z,98.8
2022-10-06T01:12:14.637Z,98.8
2022-10-06T01:13:16.666Z,98.8
2022-10-06T01:14:18.642Z,98.8
2022-10-06T01:15:20.681Z,98.8
2022-10-06T01:16:22.742Z,98.8
2022-10-06T01:17:24.637Z,98.8
2022-10-06T01:18:27.103Z,98.8
2022-10-06T01:19:28.642Z,98.8
2022-10-06T01:20:30.642Z,98.8
2022-10-06T01:21:32.641Z,98.8
2022-10-06T01:22:34.642Z,98.8
2022-10-06T01:23:36.656Z,98.8
2022-10-06T01:24:38.645Z,98.8
2022-10-06T01:25:40.638Z,98.8
2022-10-06T01:26:42.680Z,98.8
2022-10-06T01:27:44.645Z,98.8
2022-10-06T01:28:46.758Z,98.8
2022-10-06T01:29:49.648Z,98.8
2022-10-06T01:30:51.722Z,98.8
2022-10-06T01:31:55.684Z,98.8
2022-10-06T01:32:57.647Z,98.8
2022-10-06T01:33:59.661Z,98.8
2022-10-06T01:35:01.654Z,98.8
2022-10-06T01:36:03.647Z,98.8
2022-10-06T01:37:05.679Z,98.8
2022-10-06T01:38:07.653Z,98.8
2022-10-06T01:39:37.764Z,98.8
2022-10-06T01:40:37.792Z,98.8
2022-10-06T01:41:37.766Z,98.8
2022-10-06T01:42:37.797Z,98.8
2022-10-06T01:43:37.838Z,98.8
2022-10-06T01:44:37.768Z,98.8
2022-10-06T01:45:37.812Z,98.8
2022-10-06T01:46:37.837Z,98.8
2022-10-06T01:47:37.774Z,98.8
2022-10-06T01:48:37.769Z,98.8
2022-10-06T01:49:37.815Z,98.8
2022-10-06T01:50:37.923Z,98.8
2022-10-06T01:51:37.803Z,98.8
2022-10-06T01:52:37.876Z,98.8
2022-10-06T01:53:39.671Z,98.8
2022-10-06T01:54:41.854Z,98.8
2022-10-06T01:55:43.668Z,98.8
2022-10-06T01:56:45.693Z,98.8
2022-10-06T01:57:47.668Z,98.8
2022-10-06T01:58:49.806Z,98.8
2022-10-06T01:59:54.553Z,98.8
2022-10-06T02:00:55.673Z,98.8
2022-10-06T02:01:58.770Z,98.8
2022-10-06T02:03:02.038Z,98.8
2022-10-06T02:04:04.167Z,98.8
2022-10-06T02:05:04.674Z,98.8
2022-10-06T02:06:06.726Z,98.8
2022-10-06T02:07:08.710Z,98.8
2022-10-06T02:08:10.675Z,98.8
2022-10-06T02:09:12.671Z,98.8
2022-10-06T02:10:15.695Z,98.8
2022-10-06T02:11:16.723Z,98.8
2022-10-06T02:12:19.389Z,98.8
2022-10-06T02:13:20.680Z,98.8
2022-10-06T02:14:22.679Z,98.8
2022-10-06T02:15:25.694Z,98.8
2022-10-06T02:16:26.795Z,98.8
2022-10-06T02:17:28.676Z,98.8
2022-10-06T02:18:31.160Z,98.8
2022-10-06T02:19:32.686Z,98.8
2022-10-06T02:20:34.680Z,98.8
2022-10-06T02:21:37.312Z,98.8
2022-10-06T02:22:38.690Z,98.8
2022-10-06T02:23:40.704Z,98.8
2022-10-06T02:24:42.705Z,98.8
2022-10-06T02:25:45.686Z,98.8
2022-10-06T02:26:47.766Z,98.8
2022-10-06T02:27:49.686Z,98.8
2022-10-06T02:28:51.707Z,98.8
2022-10-06T02:29:57.068Z,98.8
2022-10-06T02:30:57.748Z,98.8
2022-10-06T02:31:59.712Z,98.8
2022-10-06T02:33:02.093Z,98.8
2022-10-06T02:34:03.688Z,98.8
2022-10-06T02:35:37.826Z,98.8
2022-10-06T02:36:38.008Z,98.8
2022-10-06T02:37:37.808Z,98.8
2022-10-06T02:38:37.803Z,98.8
2022-10-06T02:39:37.808Z,98.8
2022-10-06T02:40:37.858Z,98.8
2022-10-06T02:41:37.856Z,98.8
2022-10-06T02:42:37.892Z,98.8
2022-10-06T02:43:37.904Z,98.8
2022-10-06T02:44:37.817Z,98.8
2022-10-06T02:45:38.259Z,98.8
2022-10-06T02:46:37.913Z,98.8
2022-10-06T02:47:37.814Z,98.8
2022-10-06T02:48:38.039Z,98.8
2022-10-06T02:49:38.112Z,98.8
2022-10-06T02:50:37.822Z,98.8
2022-10-06T02:51:38.720Z,98.8
2022-10-06T02:52:40.710Z,98.8
2022-10-06T02:53:43.714Z,98.8
2022-10-06T02:54:45.900Z,98.8
2022-10-06T02:55:47.858Z,98.8
2022-10-06T02:56:49.707Z,98.8
2022-10-06T02:57:51.738Z,98.8
2022-10-06T02:58:54.990Z,98.8
2022-10-06T02:59:57.318Z,98.8
2022-10-06T03:00:59.060Z,98.8
2022-10-06T03:02:01.718Z,98.8
2022-10-06T03:03:02.781Z,98.8
2022-10-06T03:04:04.714Z,98.8
2022-10-06T03:05:06.715Z,98.8
2022-10-06T03:06:08.712Z,98.8
2022-10-06T03:07:10.716Z,98.8
2022-10-06T03:08:12.757Z,98.8
2022-10-06T03:09:15.495Z,98.8
2022-10-06T03:10:17.212Z,98.8
2022-10-06T03:11:19.738Z,98.8
2022-10-06T03:12:21.716Z,98.8
2022-10-06T03:13:23.741Z,98.8
2022-10-06T03:14:25.724Z,98.8
2022-10-06T03:15:27.721Z,98.8
2022-10-06T03:16:29.767Z,98.8
2022-10-06T03:17:32.649Z,98.8
2022-10-06T03:18:36.372Z,98.8
2022-10-06T03:19:35.727Z,98.8
2022-10-06T03:20:38.638Z,98.8
2022-10-06T03:21:39.724Z,98.8
2022-10-06T03:22:41.728Z,98.8
2022-10-06T03:23:43.730Z,98.8
2022-10-06T03:24:45.730Z,98.8
2022-10-06T03:25:47.734Z,98.8
2022-10-06T03:26:49.732Z,98.8
2022-10-06T03:27:51.760Z,98.8
2022-10-06T03:28:54.732Z,98.8
2022-10-06T03:29:56.749Z,98.8
2022-10-06T03:30:58.757Z,98.8
2022-10-06T03:32:02.805Z,98.8
2022-10-06T03:33:02.732Z,98.8
2022-10-06T03:34:05.763Z,98.8
2022-10-06T03:35:06.737Z,98.8
2022-10-06T03:36:08.728Z,98.8
2022-10-06T03:37:10.770Z,98.8
2022-10-06T03:38:12.739Z,98.8
2022-10-06T03:39:14.749Z,98.8
2022-10-06T03:40:16.747Z,98.8
2022-10-06T03:41:18.744Z,98.8
2022-10-06T03:42:20.747Z,98.8
2022-10-06T03:43:23.743Z,98.8
2022-10-06T03:44:25.774Z,98.8
2022-10-06T03:45:27.799Z,98.8
2022-10-06T03:46:29.816Z,98.8
2022-10-06T03:47:31.775Z,98.8
2022-10-06T03:48:33.756Z,98.8
2022-10-06T03:49:35.794Z,98.8
2022-10-06T03:50:37.760Z,98.8
2022-10-06T03:51:39.750Z,98.8
2022-10-06T03:52:41.769Z,98.8
2022-10-06T03:53:44.781Z,98.8
2022-10-06T03:54:46.799Z,98.8
2022-10-06T03:55:48.788Z,98.8
2022-10-06T03:56:51.812Z,98.8
2022-10-06T03:57:54.755Z,98.8
2022-10-06T03:58:56.802Z,98.8
2022-10-06T03:59:58.786Z,98.8
2022-10-06T04:01:11.092Z,98.8
2022-10-06T04:02:07.625Z,98.8
2022-10-06T04:03:04.760Z,98.8
2022-10-06T04:04:06.802Z,98.8
2022-10-06T04:05:08.791Z,98.8
2022-10-06T04:06:10.752Z,98.8
2022-10-06T04:07:12.765Z,98.8
2022-10-06T04:08:14.767Z,98.8
2022-10-06T04:09:16.787Z,98.8
2022-10-06T04:10:18.779Z,98.8
2022-10-06T04:11:20.755Z,98.8
2022-10-06T04:12:22.781Z,98.8
2022-10-06T04:13:37.869Z,98.8
2022-10-06T04:14:37.877Z,98.8
2022-10-06T04:15:37.868Z,98.8
2022-10-06T04:16:37.937Z,98.8
2022-10-06T04:17:37.892Z,98.8
2022-10-06T04:18:37.876Z,98.8
2022-10-06T04:19:37.881Z,98.8
2022-10-06T04:20:38.797Z,98.8
2022-10-06T04:21:40.767Z,98.8
2022-10-06T04:22:42.781Z,98.8
2022-10-06T04:23:44.774Z,98.8
2022-10-06T04:24:46.764Z,98.8
2022-10-06T04:25:53.791Z,98.8
2022-10-06T04:26:51.824Z,98.8
2022-10-06T04:27:54.866Z,98.8
2022-10-06T04:28:56.778Z,98.8
2022-10-06T04:29:58.774Z,98.8
2022-10-06T04:31:10.846Z,98.8
2022-10-06T04:32:03.815Z,98.8
2022-10-06T04:33:05.875Z,98.8
2022-10-06T04:34:07.876Z,98.8
2022-10-06T04:35:09.933Z,98.8
2022-10-06T04:36:12.060Z,98.8
2022-10-06T04:37:13.957Z,98.8
2022-10-06T04:38:26.112Z,98.8
2022-10-06T04:39:17.875Z,98.8
2022-10-06T04:40:19.904Z,98.8
2022-10-06T04:41:21.897Z,98.8
2022-10-06T04:42:25.916Z,98.8
2022-10-06T04:43:28.595Z,98.8
2022-10-06T04:44:29.883Z,98.8
2022-10-06T04:45:31.987Z,98.8
2022-10-06T04:46:43.262Z,98.8
2022-10-06T04:47:35.899Z,98.8
2022-10-06T04:48:37.914Z,98.8
2022-10-06T04:49:39.917Z,98.8
2022-10-06T04:50:41.932Z,98.8
2022-10-06T04:51:43.897Z,98.8
2022-10-06T04:52:45.884Z,98.8
2022-10-06T04:53:47.890Z,98.8
2022-10-06T04:55:26.644Z,98.8
2022-10-06T04:55:53.103Z,98.8
2022-10-06T04:56:55.037Z,98.8
2022-10-06T04:57:57.055Z,98.8
2022-10-06T04:58:59.060Z,98.8
2022-10-06T05:00:07.014Z,98.8
2022-10-06T05:01:04.190Z,98.8
2022-10-06T05:02:06.100Z,98.8
2022-10-06T05:03:08.060Z,98.8
2022-10-06T05:04:11.056Z,98.8
2022-10-06T05:05:13.103Z,98.8
2022-10-06T05:06:15.057Z,98.8
2022-10-06T05:07:37.983Z,98.8
2022-10-06T05:08:37.911Z,98.8
2022-10-06T05:09:37.907Z,98.8
2022-10-06T05:10:37.910Z,98.8
2022-10-06T05:11:37.929Z,98.8
2022-10-06T05:12:37.943Z,98.8
2022-10-06T05:13:37.949Z,98.8
2022-10-06T05:14:37.916Z,98.8
2022-10-06T05:15:37.916Z,98.8
2022-10-06T05:16:38.462Z,98.8
2022-10-06T05:17:40.075Z,98.8
2022-10-06T05:18:42.071Z,98.8
2022-10-06T05:20:46.108Z,98.8
2022-10-06T05:21:48.067Z,98.8
2022-10-06T05:22:50.076Z,98.8
2022-10-06T05:25:57.879Z,98.8
2022-10-06T05:26:37.961Z,98.8
2022-10-06T05:27:37.941Z,98.8
2022-10-06T05:28:38.005Z,98.8
2022-10-06T05:29:37.928Z,98.8
2022-10-06T05:30:37.943Z,98.8
2022-10-06T05:31:38.859Z,98.8
2022-10-06T05:32:40.629Z,98.8
2022-10-06T05:33:42.631Z,98.8
2022-10-06T05:34:46.635Z,98.8
2022-10-06T05:35:49.633Z,98.8
2022-10-06T05:36:51.655Z,98.8
2022-10-06T05:37:53.640Z,98.8
2022-10-06T05:38:55.644Z,98.8
2022-10-06T05:39:57.635Z,98.8
2022-10-06T05:40:59.659Z,98.8
2022-10-06T05:42:01.819Z,98.8
2022-10-06T05:43:03.647Z,98.8
2022-10-06T05:44:05.639Z,98.8
2022-10-06T05:45:07.645Z,98.8
2022-10-06T05:46:10.655Z,98.8
2022-10-06T05:47:12.669Z,98.8
2022-10-06T05:48:14.641Z,98.8
2022-10-06T05:49:16.640Z,98.8
2022-10-06T05:50:20.621Z,98.8
2022-10-06T05:51:20.664Z,98.8
2022-10-06T05:52:22.669Z,98.8
2022-10-06T05:53:24.652Z,98.8
2022-10-06T05:54:26.644Z,98.8
2022-10-06T05:55:28.641Z,98.8
2022-10-06T05:56:30.659Z,98.8
2022-10-06T05:57:33.680Z,98.8
2022-10-06T05:58:35.999Z,98.8
2022-10-06T05:59:37.723Z,98.8
2022-10-06T06:00:39.667Z,98.8
2022-10-06T06:01:42.752Z,98.8
2022-10-06T06:02:45.663Z,98.8
2022-10-06T06:03:47.655Z,98.8
2022-10-06T06:04:50.675Z,98.8
2022-10-06T06:05:52.654Z,98.8
2022-10-06T06:06:54.650Z,98.8
2022-10-06T06:07:56.654Z,98.8
2022-10-06T06:08:58.656Z,98.8
2022-10-06T06:10:01.200Z,98.8
2022-10-06T06:11:02.658Z,98.8
2022-10-06T06:12:04.691Z,98.8
2022-10-06T06:13:06.668Z,98.8
2022-10-06T06:14:08.666Z,98.8
2022-10-06T06:15:10.815Z,98.8
2022-10-06T06:16:12.727Z,98.8
2022-10-06T06:17:14.689Z,98.8
2022-10-06T06:18:16.678Z,98.8
2022-10-06T06:19:19.665Z,98.8
2022-10-06T06:20:21.694Z,98.8
2022-10-06T06:21:23.668Z,98.8
2022-10-06T06:22:25.704Z,98.8
2022-10-06T06:23:27.674Z,98.8
2022-10-06T06:25:31.684Z,98.8
2022-10-06T06:26:33.675Z,98.8
2022-10-06T06:27:35.696Z,98.8
2022-10-06T06:28:37.743Z,98.8
2022-10-06T06:29:39.673Z,98.8
2022-10-06T06:30:42.735Z,98.8
2022-10-06T06:31:45.713Z,98.8
2022-10-06T06:32:47.675Z,98.8
2022-10-06T06:33:49.697Z,98.8
2022-10-06T06:34:51.679Z,98.8
2022-10-06T06:35:53.677Z,98.8
2022-10-06T06:36:55.675Z,98.8
2022-10-06T06:37:57.675Z,98.8
2022-10-06T06:38:59.721Z,98.8
2022-10-06T06:40:01.673Z,98.8
2022-10-06T06:41:03.679Z,98.8
2022-10-06T06:42:05.689Z,98.8
2022-10-06T06:43:07.681Z,98.8
2022-10-06T06:44:09.699Z,98.8
2022-10-06T06:45:38.062Z,98.8
2022-10-06T06:46:38.023Z,98.8
2022-10-06T06:47:37.997Z,98.8
2022-10-06T06:48:37.982Z,98.8
2022-10-06T06:49:37.996Z,98.8
2022-10-06T06:50:37.993Z,98.8
2022-10-06T06:51:37.983Z,98.8
2022-10-06T06:52:38.023Z,98.8
2022-10-06T06:54:38.011Z,98.8
2022-10-06T06:56:38.005Z,98.8
2022-10-06T06:57:38.044Z,98.8
2022-10-06T06:58:39.567Z,98.8
2022-10-06T06:59:41.565Z,98.8
2022-10-06T07:00:43.570Z,98.8
2022-10-06T07:01:45.879Z,98.8
2022-10-06T07:02:47.587Z,98.8
2022-10-06T07:03:57.736Z,98.8
2022-10-06T07:04:51.588Z,98.8
2022-10-06T07:05:55.620Z,98.8
2022-10-06T07:06:58.724Z,98.8
2022-10-06T07:08:01.130Z,98.8
2022-10-06T07:09:02.584Z,98.8
2022-10-06T07:10:04.581Z,98.8
2022-10-06T07:11:06.572Z,98.8
2022-10-06T07:12:08.613Z,98.8
2022-10-06T07:13:11.546Z,98.8
2022-10-06T07:14:12.761Z,98.8
2022-10-06T07:15:14.594Z,98.8
2022-10-06T07:16:16.647Z,98.8
2022-10-06T07:17:18.657Z,98.8
2022-10-06T07:18:20.585Z,98.8
2022-10-06T07:19:24.809Z,98.8
2022-10-06T07:20:24.582Z,98.8
2022-10-06T07:21:26.581Z,98.8
2022-10-06T07:22:28.621Z,98.8
2022-10-06T07:23:30.613Z,98.8
2022-10-06T07:24:32.581Z,98.8
2022-10-06T07:25:34.584Z,98.8
2022-10-06T07:26:36.599Z,98.8
2022-10-06T07:27:38.591Z,98.8
2022-10-06T07:28:40.633Z,98.8
2022-10-06T07:29:42.590Z,98.8
2022-10-06T07:30:44.590Z,98.8
2022-10-06T07:31:46.584Z,98.8
2022-10-06T07:32:48.590Z,98.8
2022-10-06T07:33:51.612Z,98.8
2022-10-06T07:34:55.165Z,98.8
2022-10-06T07:35:56.597Z,98.8
2022-10-06T07:37:02.698Z,98.8
2022-10-06T07:38:01.172Z,98.8
2022-10-06T07:39:02.584Z,98.8
2022-10-06T07:40:04.605Z,98.8
2022-10-06T07:41:18.793Z,98.8
2022-10-06T07:42:08.600Z,98.8
2022-10-06T07:43:10.596Z,98.8
2022-10-06T07:44:24.390Z,98.8
2022-10-06T07:45:26.393Z,98.8
2022-10-06T07:47:12.105Z,98.8
2022-10-06T07:47:31.432Z,98.8
2022-10-06T07:48:33.394Z,98.8
2022-10-06T07:52:42.420Z,98.8
2022-10-06T07:53:44.400Z,98.8
2022-10-06T07:54:46.396Z,98.8
2022-10-06T07:55:48.385Z,98.8
2022-10-06T07:57:54.421Z,98.8
2022-10-06T07:58:56.397Z,98.8
2022-10-06T08:00:02.824Z,98.8
2022-10-06T08:01:01.211Z,98.8
2022-10-06T08:02:02.497Z,98.8
2022-10-06T08:03:09.458Z,98.8
2022-10-06T08:04:06.431Z,98.8
2022-10-06T08:05:08.409Z,98.8
2022-10-06T08:06:10.408Z,98.8
2022-10-06T08:07:12.407Z,98.8
2022-10-06T08:08:14.412Z,98.8
2022-10-06T08:09:16.429Z,98.8
2022-10-06T08:10:18.411Z,98.8
2022-10-06T08:11:20.409Z,98.8
2022-10-06T08:12:22.416Z,98.8
2022-10-06T08:14:38.070Z,98.8
2022-10-06T08:15:38.048Z,98.8
2022-10-06T08:16:38.112Z,98.8
2022-10-06T08:17:38.116Z,98.8
2022-10-06T08:18:46.566Z,98.8
2022-10-06T08:19:38.116Z,98.8
2022-10-06T08:20:38.412Z,98.8
2022-10-06T08:21:40.419Z,98.8
2022-10-06T08:22:42.429Z,98.8
2022-10-06T08:23:44.413Z,98.8
2022-10-06T08:25:08.503Z,98.8
2022-10-06T08:25:48.426Z,98.8
2022-10-06T08:26:51.431Z,98.8
2022-10-06T08:27:54.410Z,98.8
2022-10-06T08:28:56.428Z,98.8
2022-10-06T08:29:58.419Z,98.8
2022-10-06T08:31:01.225Z,98.8
2022-10-06T08:32:03.430Z,98.8
2022-10-06T08:33:06.420Z,98.8
2022-10-06T08:34:11.777Z,98.8
2022-10-06T08:35:10.452Z,98.8
2022-10-06T08:36:12.500Z,98.8
2022-10-06T08:37:20.177Z,98.8
2022-10-06T08:38:16.465Z,98.8
2022-10-06T08:39:18.432Z,98.8
2022-10-06T08:40:20.463Z,98.8
2022-10-06T08:41:22.454Z,98.8
2022-10-06T08:42:24.437Z,98.8
2022-10-06T08:43:26.444Z,98.8
2022-10-06T08:44:29.440Z,98.8
2022-10-06T08:45:35.001Z,98.8
2022-10-06T08:46:33.486Z,98.8
2022-10-06T08:47:35.446Z,98.8
2022-10-06T08:48:37.441Z,98.8
2022-10-06T08:49:40.436Z,98.8
2022-10-06T08:50:42.441Z,98.8
2022-10-06T08:51:45.469Z,98.8
2022-10-06T08:52:47.439Z,98.8
2022-10-06T08:53:49.468Z,98.8
2022-10-06T08:55:54.451Z,98.8
2022-10-06T08:56:56.468Z,98.8
2022-10-06T08:57:58.462Z,98.8
2022-10-06T08:59:01.170Z,98.8
2022-10-06T09:00:02.451Z,98.8
2022-10-06T09:01:04.503Z,98.8
2022-10-06T09:02:06.573Z,98.8
2022-10-06T09:03:08.447Z,98.8
2022-10-06T09:04:10.447Z,98.8
2022-10-06T09:05:12.448Z,98.8
2022-10-06T09:06:14.459Z,98.8
2022-10-06T09:07:16.471Z,98.8
2022-10-06T09:08:18.449Z,98.8
2022-10-06T09:09:20.476Z,98.8
2022-10-06T09:10:22.753Z,98.8
2022-10-06T09:11:24.746Z,98.8
2022-10-06T09:12:26.784Z,98.8
2022-10-06T09:13:28.772Z,98.8
2022-10-06T09:14:30.751Z,98.8
2022-10-06T09:15:32.749Z,98.8
2022-10-06T09:16:34.846Z,98.8
2022-10-06T09:17:36.770Z,98.8
2022-10-06T09:18:56.500Z,98.8
2022-10-06T09:19:40.756Z,98.8
2022-10-06T09:20:42.779Z,98.8
2022-10-06T09:21:45.955Z,98.8
2022-10-06T09:22:47.756Z,98.8
2022-10-06T09:23:49.779Z,98.8
2022-10-06T09:24:51.793Z,98.8
2022-10-06T09:25:55.755Z,98.8
2022-10-06T09:26:57.778Z,98.8
2022-10-06T09:27:59.805Z,98.8
2022-10-06T09:29:01.772Z,98.8
2022-10-06T09:30:03.769Z,98.8
2022-10-06T09:31:05.791Z,98.8
2022-10-06T09:32:07.797Z,98.8
2022-10-06T09:33:09.768Z,98.8
2022-10-06T09:34:11.765Z,98.8
2022-10-06T09:35:13.766Z,98.8
2022-10-06T09:36:15.800Z,98.8
2022-10-06T09:38:19.761Z,98.8
2022-10-06T09:39:21.801Z,98.8
2022-10-06T09:40:24.765Z,98.8
2022-10-06T09:41:26.808Z,98.8
2022-10-06T09:42:28.762Z,98.8
2022-10-06T09:43:30.766Z,98.8
2022-10-06T09:44:32.773Z,98.8
2022-10-06T09:45:34.766Z,98.8
2022-10-06T09:46:36.843Z,98.8
2022-10-06T09:47:38.787Z,98.8
2022-10-06T09:48:40.768Z,98.8
2022-10-06T09:49:42.779Z,98.8
2022-10-06T09:50:45.766Z,98.8
2022-10-06T09:51:47.806Z,98.8
2022-10-06T09:52:49.783Z,98.8
2022-10-06T09:53:51.799Z,98.8
2022-10-06T09:54:54.808Z,98.8
2022-10-06T09:55:56.771Z,98.8
2022-10-06T09:56:59.006Z,98.8
2022-10-06T09:58:01.791Z,98.8
2022-10-06T09:59:03.783Z,98.8
2022-10-06T10:00:05.812Z,98.8
2022-10-06T10:01:07.872Z,98.8
2022-10-06T10:02:09.784Z,98.8
2022-10-06T10:03:11.832Z,98.8
2022-10-06T10:04:21.748Z,98.8
2022-10-06T10:05:15.798Z,98.8
2022-10-06T10:06:17.781Z,98.8
2022-10-06T10:07:19.793Z,98.8
2022-10-06T10:08:21.813Z,98.8
2022-10-06T10:09:23.802Z,98.8
2022-10-06T10:12:29.842Z,97.7
2022-10-06T10:13:31.807Z,97.6
2022-10-06T10:18:25.153Z,94.9
2022-10-06T10:19:27.116Z,96.2
2022-10-06T10:20:29.129Z,95.6
2022-10-06T10:22:33.253Z,94.5
2022-10-06T10:23:36.276Z,93.3
2022-10-06T10:24:38.479Z,91.2
2022-10-06T10:25:40.295Z,90.7
2022-10-06T10:26:42.276Z,91.5
2022-10-06T10:30:01.838Z,91.6
2022-10-06T10:31:16.062Z,92.3
2022-10-06T10:34:25.915Z,92.4
2022-10-06T10:36:32.804Z,91.9
2022-10-06T10:37:34.802Z,91.6
2022-10-06T10:38:36.815Z,91.6
2022-10-06T10:39:38.833Z,93.7
2022-10-06T10:40:40.790Z,93.2
2022-10-06T10:42:47.043Z,91.6
2022-10-06T10:43:49.021Z,90.9
2022-10-06T10:47:28.801Z,88.5
2022-10-06T10:49:17.406Z,86.6
2022-10-06T10:50:20.523Z,86.3
2022-10-06T10:51:23.512Z,86.9
2022-10-06T10:52:25.516Z,86.9
2022-10-06T10:54:29.518Z,85.9
2022-10-06T10:59:41.174Z,85.4
2022-10-06T10:59:41.661Z,85.8
2022-10-06T10:59:48.491Z,85.1
2022-10-06T11:00:50.570Z,85.3
2022-10-06T11:01:52.507Z,84.4
2022-10-06T11:02:54.499Z,84.7
2022-10-06T11:03:56.586Z,85.2
2022-10-06T11:04:58.906Z,85.3
2022-10-06T11:06:01.156Z,85.4
2022-10-06T11:07:02.494Z,85.1
2022-10-06T11:08:04.490Z,84.9
2022-10-06T11:09:06.505Z,84.4
2022-10-06T11:10:08.506Z,83.2
2022-10-06T11:11:10.495Z,83.8
2022-10-06T11:12:12.495Z,84.3
2022-10-06T11:13:14.505Z,84
2022-10-06T11:14:16.499Z,83.1
2022-10-06T11:15:18.498Z,84.6
2022-10-06T11:16:20.564Z,85.5
2022-10-06T11:17:22.499Z,86.3
2022-10-06T11:18:24.514Z,83.4
2022-10-06T11:20:28.557Z,82.6
2022-10-06T11:21:30.499Z,83.1
2022-10-06T11:22:32.501Z,83.8
2022-10-06T11:23:34.516Z,83.8
2022-10-06T11:24:36.499Z,82.4
2022-10-06T11:26:51.534Z,80
2022-10-06T11:28:38.305Z,80.4
2022-10-06T11:29:38.200Z,80.8
2022-10-06T11:30:38.189Z,80.9
2022-10-06T11:31:38.261Z,81.2
2022-10-06T11:32:38.185Z,81.6
2022-10-06T11:33:38.255Z,81.9
2022-10-06T11:34:38.182Z,81.7
2022-10-06T11:35:38.243Z,80.5
2022-10-06T11:36:38.203Z,81.5
2022-10-06T11:37:38.199Z,81.8
2022-10-06T11:38:38.237Z,81.1
2022-10-06T11:39:38.205Z,83.3
2022-10-06T11:40:38.206Z,81.6
2022-10-06T11:41:38.209Z,79.9
2022-10-06T11:42:38.207Z,80.1
2022-10-06T11:43:38.250Z,79.8
2022-10-06T11:44:38.193Z,78.9
2022-10-06T11:45:38.251Z,78.4
2022-10-06T11:46:41.283Z,78.4
2022-10-06T11:47:38.224Z,78
2022-10-06T11:48:38.346Z,77
2022-10-06T11:49:38.557Z,76
2022-10-06T11:50:40.580Z,74.6
2022-10-06T11:51:42.570Z,73.9
2022-10-06T11:52:46.556Z,73.8
2022-10-06T11:53:48.598Z,71.6
2022-10-06T11:54:50.560Z,70.5
2022-10-06T11:55:54.567Z,69.4
2022-10-06T11:56:56.562Z,70.4
2022-10-06T11:58:08.659Z,69.9
2022-10-06T11:59:04.584Z,70.2
2022-10-06T12:00:06.573Z,68.4
2022-10-06T12:01:08.571Z,68.6
2022-10-06T12:02:12.717Z,67.6
2022-10-06T12:03:14.662Z,67.7
2022-10-06T12:04:23.424Z,66.6
2022-10-06T12:05:54.756Z,67.1
2022-10-06T12:06:22.599Z,66.3
2022-10-06T12:07:24.566Z,66.2
2022-10-06T12:08:26.623Z,66.1
2022-10-06T12:09:30.586Z,66.1
2022-10-06T12:10:32.571Z,65.8
2022-10-06T12:11:34.573Z,65.2
2022-10-06T12:12:38.753Z,67.9
2022-10-06T12:14:44.584Z,67.6
2022-10-06T12:17:10.602Z,66.9
2022-10-06T12:17:56.579Z,67
2022-10-06T12:19:01.181Z,66.8
2022-10-06T12:20:02.585Z,66
2022-10-06T12:21:04.585Z,65.3
2022-10-06T12:22:07.581Z,66.5
2022-10-06T12:23:11.580Z,66.9
2022-10-06T12:24:15.605Z,70.9
2022-10-06T12:25:17.640Z,67.9
2022-10-06T12:26:19.600Z,67.3
2022-10-06T12:27:25.013Z,69
2022-10-06T12:28:23.654Z,70.5
2022-10-06T12:29:26.617Z,70
2022-10-06T12:30:28.660Z,69.1
2022-10-06T12:31:30.602Z,69.5
2022-10-06T12:32:32.605Z,71.1
2022-10-06T12:33:34.669Z,69.9
2022-10-06T12:34:36.593Z,69.2
2022-10-06T12:35:53.470Z,71.5
2022-10-06T12:36:44.854Z,72.1
2022-10-06T12:37:42.585Z,72.1
2022-10-06T12:38:46.588Z,70.1
2022-10-06T12:39:48.605Z,72.3
2022-10-06T12:42:54.600Z,71.7
2022-10-06T12:43:56.632Z,71.5
2022-10-06T12:46:01.724Z,71.7
2022-10-06T12:47:03.592Z,71.6
2022-10-06T12:48:05.602Z,71.3
2022-10-06T12:49:07.610Z,70.6
2022-10-06T12:50:09.604Z,71.5
2022-10-06T12:51:11.598Z,71.6
2022-10-06T12:52:14.628Z,71.3
2022-10-06T12:53:16.605Z,70.9
2022-10-06T12:54:18.625Z,70.1
2022-10-06T12:55:20.620Z,71.6
2022-10-06T12:56:22.608Z,72.5
2022-10-06T12:57:24.636Z,72.9
2022-10-06T12:58:26.624Z,73.6
2022-10-06T12:59:28.631Z,73.6
2022-10-06T13:00:30.613Z,73.3
2022-10-06T13:01:32.686Z,74.1
2022-10-06T13:02:34.690Z,74
2022-10-06T13:03:38.267Z,73.9
2022-10-06T13:04:38.612Z,72.3
2022-10-06T13:05:40.629Z,72.5
2022-10-06T13:06:42.676Z,73.6
2022-10-06T13:07:46.625Z,72.1
2022-10-06T13:08:48.613Z,72.6
2022-10-06T13:09:50.640Z,73.4
2022-10-06T13:10:52.660Z,75.1
2022-10-06T13:11:54.656Z,73.1
2022-10-06T13:12:56.630Z,72.7
2022-10-06T13:13:58.666Z,74.1
2022-10-06T13:15:01.405Z,73.6
2022-10-06T13:16:02.629Z,73.3
2022-10-06T13:17:04.683Z,73.5
2022-10-06T13:18:06.620Z,72.9
2022-10-06T13:19:08.628Z,74.4
2022-10-06T13:20:10.622Z,73.9
2022-10-06T13:21:12.637Z,73.5
2022-10-06T13:22:14.647Z,74.3
2022-10-06T13:23:16.627Z,71.4
2022-10-06T13:24:18.635Z,71.4
2022-10-06T13:25:20.625Z,71.6
2022-10-06T13:26:22.632Z,70.9
2022-10-06T13:27:24.646Z,72
2022-10-06T13:29:28.666Z,72.1
2022-10-06T13:30:35.006Z,72.1
2022-10-06T13:31:32.633Z,71
2022-10-06T13:32:47.582Z,71.4
2022-10-06T13:33:38.290Z,71.7
2022-10-06T13:35:42.644Z,71.6
2022-10-06T13:36:45.662Z,72.4
2022-10-06T13:37:48.690Z,72.1
2022-10-06T13:39:53.336Z,71.7
2022-10-06T13:40:55.343Z,71.9
2022-10-06T13:41:57.335Z,71.6
2022-10-06T13:43:01.180Z,72.4
2022-10-06T13:44:02.345Z,72.7
2022-10-06T13:45:05.367Z,72.2
2022-10-06T13:46:07.373Z,71.5
2022-10-06T13:47:09.376Z,72.5
2022-10-06T13:48:11.348Z,71.2
2022-10-06T13:49:13.338Z,70.8
2022-10-06T13:50:19.583Z,71.2
2022-10-06T13:51:17.371Z,71.5
2022-10-06T13:52:19.339Z,71.8
2022-10-06T13:53:21.343Z,71.9
2022-10-06T13:54:23.341Z,72.1
2022-10-06T13:55:25.346Z,71.7
2022-10-06T13:57:29.340Z,70.9
2022-10-06T13:58:32.344Z,70.5
2022-10-06T13:59:34.365Z,70.8
2022-10-06T14:00:36.355Z,69.8
2022-10-06T14:01:38.427Z,70.2
2022-10-06T14:02:40.397Z,70.3
2022-10-06T14:03:42.389Z,70.5
2022-10-06T14:04:45.380Z,69.2
2022-10-06T14:05:48.364Z,69.4
2022-10-06T14:06:52.399Z,70.5
2022-10-06T14:07:56.364Z,70.6
2022-10-06T14:08:59.357Z,70.2
2022-10-06T14:10:01.423Z,70.4
2022-10-06T14:11:03.350Z,70.7
2022-10-06T14:12:05.407Z,71.4
2022-10-06T14:13:07.369Z,70.6
2022-10-06T14:14:09.359Z,70.7
2022-10-06T14:15:11.364Z,71.3
2022-10-06T14:16:13.416Z,70.9
2022-10-06T14:17:15.395Z,71.8
2022-10-06T14:18:17.367Z,72.1
2022-10-06T14:19:19.365Z,71.7
2022-10-06T14:20:23.375Z,71.5
2022-10-06T14:21:26.363Z,70.6
2022-10-06T14:22:28.413Z,71.3
2022-10-06T14:23:32.371Z,69
2022-10-06T14:24:34.378Z,70.4
2022-10-06T14:25:36.361Z,70
2022-10-06T14:26:38.405Z,70.7
2022-10-06T14:27:42.372Z,70.4
2022-10-06T14:28:46.400Z,71.4
2022-10-06T14:29:49.412Z,72.1
2022-10-06T14:30:51.399Z,71.7
2022-10-06T14:31:53.382Z,72.1
2022-10-06T14:32:55.375Z,71.2
2022-10-06T14:33:57.378Z,72.3